Time;durP1;ratioP1;P1;durP2;ratioP2;P2;SDS_P1;SDS_P2;PMS_P1;PMS_P2;Temp;Humidity;BMP_temperature;BMP_pressure;BME280_temperature;BME280_humidity;BME280_pressure;Samples;Min_cycle;Max_cycle;Signal;HPM_P1;HPM_P2
2023/11/07 00:01:43;;;;;;;4.70;2.10;;;;;;;14.35;45.57;100677.17;109950;1286;21929;-59
2023/11/07 00:04:09;;;;;;;6.40;2.60;;;;;;;14.33;45.67;100677.21;109984;1281;21950;-59
2023/11/07 00:06:35;;;;;;;8.20;1.80;;;;;;;14.32;45.66;100675.11;109961;1284;21928;-60
2023/11/07 00:09:01;;;;;;;6.30;2.50;;;;;;;14.28;45.63;100681.38;109964;1286;21966;-59
2023/11/07 00:11:26;;;;;;;4.40;2.00;;;;;;;14.27;45.62;100684.05;109972;1286;21968;-70
2023/11/07 00:13:52;;;;;;;5.40;1.80;;;;;;;14.24;45.61;100687.65;109990;1279;21970;-59
2023/11/07 00:16:18;;;;;;;5.30;2.10;;;;;;;14.22;45.61;100687.86;109984;1275;21947;-61
2023/11/07 00:18:44;;;;;;;3.20;1.60;;;;;;;14.22;45.72;100689.45;109973;1286;21938;-70
2023/11/07 00:21:10;;;;;;;5.80;1.90;;;;;;;14.23;45.83;100691.19;109948;1286;22077;-69
2023/11/07 00:23:36;;;;;;;3.60;1.70;;;;;;;14.26;45.87;100695.19;109964;1280;22225;-59
2023/11/07 00:26:02;;;;;;;4.40;1.80;;;;;;;14.30;45.83;100695.27;109938;1280;22016;-60
2023/11/07 00:28:28;;;;;;;5.10;1.80;;;;;;;14.34;45.87;100696.27;109975;1286;21939;-69
2023/11/07 00:30:53;;;;;;;4.90;2.10;;;;;;;14.36;45.78;100698.67;109964;1285;22244;-59
2023/11/07 00:33:19;;;;;;;4.80;2.00;;;;;;;14.37;45.73;100703.05;109980;1275;21982;-59
2023/11/07 00:35:44;;;;;;;6.70;2.40;;;;;;;14.37;45.64;100706.40;109984;1278;21870;-70
2023/11/07 00:38:10;;;;;;;3.80;1.80;;;;;;;14.37;45.73;100705.88;109974;1280;21903;-70
2023/11/07 00:40:36;;;;;;;3.70;1.80;;;;;;;14.38;45.62;100705.85;109970;1286;22009;-60
2023/11/07 00:43:01;;;;;;;5.60;1.60;;;;;;;14.39;45.63;100711.14;109956;1281;22063;-69
2023/11/07 00:45:27;;;;;;;5.00;2.00;;;;;;;14.38;45.64;100712.59;109970;1279;21949;-60
2023/11/07 00:47:52;;;;;;;4.90;1.90;;;;;;;14.39;45.65;100714.48;109978;1279;21947;-59
2023/11/07 00:50:18;;;;;;;7.90;2.10;;;;;;;14.41;45.67;100715.14;109969;1280;22373;-60
2023/11/07 00:52:44;;;;;;;4.50;1.90;;;;;;;14.43;45.68;100718.29;109962;1286;21851;-68
2023/11/07 00:55:10;;;;;;;4.50;1.70;;;;;;;14.44;45.72;100723.38;109974;1281;21921;-59
2023/11/07 00:57:35;;;;;;;4.10;1.70;;;;;;;14.46;45.71;100723.85;109985;1280;22006;-62
2023/11/07 01:00:01;;;;;;;6.00;2.10;;;;;;;14.49;45.72;100727.17;109975;1286;21929;-69
2023/11/07 01:02:27;;;;;;;6.70;2.40;;;;;;;14.52;45.65;100729.04;109971;1279;22012;-59
2023/11/07 01:04:53;;;;;;;3.80;1.90;;;;;;;14.53;45.60;100735.73;109974;1280;21930;-64
2023/11/07 01:07:18;;;;;;;4.60;2.00;;;;;;;14.52;45.57;100735.05;109978;1286;21919;-60
2023/11/07 01:09:44;;;;;;;5.60;1.90;;;;;;;14.56;45.42;100731.23;109959;1278;21893;-70
2023/11/07 01:12:10;;;;;;;5.40;2.20;;;;;;;14.56;45.38;100732.29;109979;1286;21957;-69
2023/11/07 01:14:36;;;;;;;4.80;2.30;;;;;;;14.53;45.34;100732.90;109983;1283;22100;-59
2023/11/07 01:17:01;;;;;;;5.00;1.90;;;;;;;14.42;45.40;100737.02;109965;1284;22059;-70
2023/11/07 01:19:27;;;;;;;4.60;2.20;;;;;;;14.33;45.52;100738.11;109956;1286;22000;-60
2023/11/07 01:21:53;;;;;;;4.70;1.80;;;;;;;14.27;45.51;100745.29;109979;1280;21986;-68
2023/11/07 01:24:18;;;;;;;5.00;2.10;;;;;;;14.25;45.53;100750.82;109975;1275;22353;-59
2023/11/07 01:26:44;;;;;;;4.40;2.10;;;;;;;14.23;45.55;100757.58;109975;1285;21862;-70
2023/11/07 01:29:10;;;;;;;4.50;1.80;;;;;;;14.21;45.57;100763.42;109981;1279;22027;-70
2023/11/07 01:31:35;;;;;;;6.40;2.30;;;;;;;14.21;45.73;100764.48;109968;1286;21914;-70
2023/11/07 01:34:01;;;;;;;5.70;1.70;;;;;;;14.19;45.75;100764.88;109989;1285;21916;-59
2023/11/07 01:36:27;;;;;;;5.40;2.00;;;;;;;14.16;45.69;100767.93;110005;1281;22025;-60
2023/11/07 01:38:52;;;;;;;7.50;2.30;;;;;;;14.12;45.67;100773.33;109994;1285;21966;-70
2023/11/07 01:41:18;;;;;;;3.80;1.50;;;;;;;14.07;45.71;100780.84;110034;1280;22391;-71
2023/11/07 01:43:45;;;;;;;4.40;1.80;;;;;;;14.02;45.73;100783.06;109896;1285;22818;-70
2023/11/07 01:46:11;;;;;;;6.40;2.00;;;;;;;13.95;45.75;100786.90;110009;1281;22011;-69
2023/11/07 01:48:37;;;;;;;5.60;1.80;;;;;;;13.89;45.72;100787.72;109991;1283;21957;-59
2023/11/07 01:51:03;;;;;;;6.30;1.70;;;;;;;13.86;45.78;100793.96;109973;1285;22012;-70
2023/11/07 01:53:29;;;;;;;5.00;2.20;;;;;;;13.84;45.84;100799.27;109969;1281;21962;-71
2023/11/07 01:55:56;;;;;;;3.90;2.10;;;;;;;13.82;45.86;100798.61;110019;1281;21926;-71
2023/11/07 01:58:22;;;;;;;5.70;2.00;;;;;;;13.80;45.85;100801.46;110014;1285;22002;-71
2023/11/07 02:00:48;;;;;;;6.00;2.00;;;;;;;13.77;45.89;100801.52;109962;1285;21944;-71
2023/11/07 02:03:14;;;;;;;4.90;2.20;;;;;;;13.74;45.99;100799.64;109990;1274;21885;-71
2023/11/07 02:05:42;;;;;;;4.90;1.90;;;;;;;13.68;45.97;100799.41;109272;1281;1002119;-70
2023/11/07 02:08:09;;;;;;;5.60;2.30;;;;;;;13.66;46.07;100796.44;110005;1280;22180;-59
2023/11/07 02:10:35;;;;;;;4.40;1.80;;;;;;;13.66;46.25;100795.56;108459;1274;1002890;-70
2023/11/07 02:13:01;;;;;;;5.00;1.80;;;;;;;13.64;46.25;100797.35;109987;1285;21946;-70
2023/11/07 02:15:27;;;;;;;3.50;1.60;;;;;;;13.58;46.05;100799.92;109998;1279;21999;-70
2023/11/07 02:17:53;;;;;;;4.40;2.00;;;;;;;13.50;45.99;100800.77;109998;1279;21948;-70
2023/11/07 02:20:19;;;;;;;3.80;1.90;;;;;;;13.43;46.02;100801.42;109993;1283;21950;-59
2023/11/07 02:22:46;;;;;;;6.00;2.10;;;;;;;13.38;46.16;100802.90;110000;1283;22011;-70
2023/11/07 02:25:13;;;;;;;5.10;2.10;;;;;;;13.35;46.20;100803.12;109982;1279;22135;-70
2023/11/07 02:27:39;;;;;;;5.10;2.20;;;;;;;13.33;46.20;100803.67;109976;1285;21978;-69
2023/11/07 02:30:10;;;;;;;4.50;1.90;;;;;;;13.30;46.09;100801.61;109972;1281;21963;-70
2023/11/07 02:32:36;;;;;;;5.30;2.30;;;;;;;13.28;46.19;100800.77;109964;1276;21999;-70
2023/11/07 02:35:01;;;;;;;5.50;2.20;;;;;;;13.27;46.23;100797.62;110005;1284;21949;-70
2023/11/07 02:37:27;;;;;;;6.30;2.00;;;;;;;13.25;46.45;100801.71;110020;1274;21997;-70
2023/11/07 02:39:53;;;;;;;7.70;2.00;;;;;;;13.24;46.49;100805.95;110016;1277;21961;-59
2023/11/07 02:42:18;;;;;;;5.10;2.00;;;;;;;13.23;46.43;100808.44;110014;1285;21922;-70
2023/11/07 02:44:44;;;;;;;6.00;2.20;;;;;;;13.21;46.47;100812.70;109245;1273;1002336;-71
2023/11/07 02:47:10;;;;;;;4.20;2.00;;;;;;;13.19;46.44;100813.27;110016;1285;21938;-70
2023/11/07 02:49:36;;;;;;;4.40;2.50;;;;;;;13.17;46.50;100820.15;110015;1283;22304;-70
2023/11/07 02:52:02;;;;;;;6.60;2.00;;;;;;;13.15;46.45;100827.23;110023;1285;21945;-69
2023/11/07 02:54:27;;;;;;;4.20;2.00;;;;;;;13.09;46.36;100832.41;110011;1277;22372;-70
2023/11/07 02:56:53;;;;;;;6.10;2.20;;;;;;;13.03;46.46;100835.52;110033;1280;21943;-60
2023/11/07 02:59:18;;;;;;;4.60;2.10;;;;;;;12.98;46.50;100838.26;110015;1280;21862;-66
2023/11/07 03:01:44;;;;;;;4.40;1.90;;;;;;;12.96;46.60;100842.52;110016;1275;21977;-60
2023/11/07 03:04:11;;;;;;;4.40;2.00;;;;;;;12.98;46.56;100846.70;110023;1283;21973;-59
2023/11/07 03:06:37;;;;;;;6.60;2.10;;;;;;;13.00;46.60;100845.43;110026;1283;21950;-60
2023/11/07 03:09:03;;;;;;;4.30;2.10;;;;;;;13.02;46.63;100847.00;110010;1280;22416;-70
2023/11/07 03:11:29;;;;;;;6.20;2.10;;;;;;;13.02;46.63;100850.86;110018;1285;22030;-69
2023/11/07 03:13:54;;;;;;;4.10;2.10;;;;;;;13.01;46.62;100856.88;110020;1280;21977;-59
2023/11/07 03:16:20;;;;;;;4.00;2.00;;;;;;;12.99;46.49;100859.02;110015;1280;21932;-59
2023/11/07 03:18:46;;;;;;;5.50;2.30;;;;;;;12.94;46.54;100866.67;110015;1280;21974;-68
2023/11/07 03:21:12;;;;;;;4.80;2.00;;;;;;;12.88;46.76;100869.57;110033;1285;22014;-69
2023/11/07 03:23:38;;;;;;;6.10;2.40;;;;;;;12.85;46.94;100874.16;110011;1274;21922;-60
2023/11/07 03:26:04;;;;;;;5.20;2.10;;;;;;;12.83;46.82;100876.83;110026;1283;21932;-59
2023/11/07 03:28:31;;;;;;;10.20;2.30;;;;;;;12.82;46.93;100875.60;110008;1285;21942;-71
2023/11/07 03:30:56;;;;;;;9.40;2.20;;;;;;;12.84;47.01;100878.93;110016;1283;21905;-59
2023/11/07 03:33:22;;;;;;;6.20;2.50;;;;;;;12.87;46.98;100883.13;110020;1274;22054;-70
2023/11/07 03:35:47;;;;;;;7.20;2.70;;;;;;;12.89;47.03;100887.50;109277;1280;1002525;-59
2023/11/07 03:38:13;;;;;;;7.20;2.50;;;;;;;12.92;47.02;100893.09;109997;1283;21983;-59
2023/11/07 03:40:39;;;;;;;8.60;2.70;;;;;;;12.96;47.09;100895.17;110014;1283;21941;-71
2023/11/07 03:43:05;;;;;;;12.10;3.20;;;;;;;12.99;47.05;100895.13;110025;1285;22331;-60
2023/11/07 03:45:30;;;;;;;5.50;2.40;;;;;;;12.99;47.00;100892.31;109846;1278;21927;-60
2023/11/07 03:47:56;;;;;;;6.90;2.70;;;;;;;12.96;47.04;100894.29;110015;1283;21945;-70
2023/11/07 03:50:23;;;;;;;6.10;2.50;;;;;;;12.93;47.12;100893.98;110006;1285;22069;-59
2023/11/07 03:52:49;;;;;;;9.00;2.30;;;;;;;12.90;47.18;100897.70;110018;1282;21877;-59
2023/11/07 03:55:14;;;;;;;7.70;2.70;;;;;;;12.88;47.13;100901.60;110004;1279;22068;-59
2023/11/07 03:57:40;;;;;;;5.10;2.10;;;;;;;12.86;47.10;100903.23;110028;1280;21975;-60
2023/11/07 04:00:10;;;;;;;4.80;2.30;;;;;;;12.83;47.12;100906.79;110012;1274;21974;-70
2023/11/07 04:02:37;;;;;;;10.80;2.20;;;;;;;12.80;47.07;100907.35;109982;1285;21950;-59
2023/11/07 04:05:03;;;;;;;7.50;2.50;;;;;;;12.80;47.10;100909.30;110030;1279;21940;-59
2023/11/07 04:07:29;;;;;;;6.30;2.40;;;;;;;12.78;47.14;100913.38;110000;1277;21878;-60
2023/11/07 04:09:56;;;;;;;5.00;2.80;;;;;;;12.74;47.17;100920.29;110021;1280;21975;-60
2023/11/07 04:12:22;;;;;;;4.20;2.00;;;;;;;12.68;47.17;100921.59;110044;1273;21951;-70
2023/11/07 04:14:48;;;;;;;6.50;2.20;;;;;;;12.64;47.05;100924.11;110011;1274;22014;-70
2023/11/07 04:17:15;;;;;;;5.10;2.00;;;;;;;12.60;47.15;100927.48;109971;1283;21988;-59
2023/11/07 04:19:42;;;;;;;5.00;2.20;;;;;;;12.58;47.09;100929.11;109994;1285;21944;-59
2023/11/07 04:22:08;;;;;;;6.30;2.30;;;;;;;12.54;47.15;100927.05;110003;1285;21903;-70
2023/11/07 04:24:37;;;;;;;4.80;2.20;;;;;;;12.48;47.02;100926.05;110009;1273;21948;-59
2023/11/07 04:27:04;;;;;;;7.80;2.40;;;;;;;12.43;47.15;100926.10;110007;1279;21994;-70
2023/11/07 04:29:30;;;;;;;5.20;2.30;;;;;;;12.39;47.14;100924.73;109214;1276;1002889;-59
2023/11/07 04:31:56;;;;;;;6.90;2.50;;;;;;;12.35;47.19;100922.69;110010;1281;21916;-70
2023/11/07 04:34:21;;;;;;;5.80;2.40;;;;;;;12.32;47.08;100921.13;109317;1275;1002269;-59
2023/11/07 04:36:47;;;;;;;6.80;2.20;;;;;;;12.28;47.20;100923.28;109255;1280;1002336;-59
2023/11/07 04:39:12;;;;;;;8.10;2.70;;;;;;;12.28;47.43;100927.68;109988;1280;22006;-69
2023/11/07 04:41:38;;;;;;;11.80;3.10;;;;;;;12.30;47.56;100937.69;110035;1280;21912;-69
2023/11/07 04:44:05;;;;;;;12.50;2.10;;;;;;;12.31;47.48;100940.67;109996;1280;21970;-68
2023/11/07 04:46:31;;;;;;;10.60;2.60;;;;;;;12.30;47.57;100944.38;110023;1283;21935;-59
2023/11/07 04:48:57;;;;;;;9.30;2.40;;;;;;;12.28;47.19;100947.02;110010;1285;22052;-68
2023/11/07 04:51:23;;;;;;;7.30;2.20;;;;;;;12.23;47.08;100953.41;110018;1280;21918;-60
2023/11/07 04:53:49;;;;;;;7.00;2.60;;;;;;;12.14;46.75;100963.70;110019;1282;21994;-59
2023/11/07 04:56:15;;;;;;;17.00;2.80;;;;;;;12.06;47.06;100963.95;110014;1285;21908;-60
2023/11/07 04:58:41;;;;;;;6.30;2.30;;;;;;;12.03;47.17;100969.26;110014;1274;22356;-69
2023/11/07 05:01:07;;;;;;;8.60;2.50;;;;;;;12.01;47.14;100980.88;110012;1283;21908;-59
2023/11/07 05:03:33;;;;;;;7.70;2.30;;;;;;;11.98;47.20;100978.77;110003;1276;21985;-58
2023/11/07 05:05:59;;;;;;;7.10;2.50;;;;;;;11.95;47.15;100977.38;110020;1281;21901;-69
2023/11/07 05:08:25;;;;;;;9.90;2.90;;;;;;;11.92;47.15;100981.98;110008;1283;21966;-70
2023/11/07 05:10:50;;;;;;;27.50;4.60;;;;;;;11.94;47.36;100987.42;109981;1284;21895;-59
2023/11/07 05:13:16;;;;;;;8.20;3.10;;;;;;;11.92;47.48;100990.25;110003;1285;21987;-59
2023/11/07 05:15:42;;;;;;;10.70;3.00;;;;;;;11.92;47.36;100994.14;110000;1283;21916;-70
2023/11/07 05:18:11;;;;;;;8.10;3.20;;;;;;;11.91;47.45;100996.25;109997;1280;22386;-68
2023/11/07 05:20:38;;;;;;;10.10;3.20;;;;;;;11.91;47.46;101002.74;110027;1283;21922;-59
2023/11/07 05:23:05;;;;;;;7.10;3.20;;;;;;;11.93;47.48;101008.89;109998;1285;21885;-68
2023/11/07 05:25:32;;;;;;;7.80;2.90;;;;;;;11.96;47.74;101013.42;110012;1283;22014;-59
2023/11/07 05:27:58;;;;;;;8.10;2.70;;;;;;;12.01;47.85;101015.88;109996;1276;21945;-69
2023/11/07 05:30:23;;;;;;;5.00;2.60;;;;;;;12.06;47.98;101015.16;109204;1281;1002341;-68
2023/11/07 05:32:49;;;;;;;5.70;2.80;;;;;;;12.11;47.95;101021.77;110013;1285;21919;-67
2023/11/07 05:35:14;;;;;;;6.60;2.50;;;;;;;12.24;47.74;101028.02;110008;1274;22022;-58
2023/11/07 05:37:40;;;;;;;8.10;2.90;;;;;;;12.33;47.75;101033.75;110010;1276;21914;-59
2023/11/07 05:40:12;;;;;;;8.70;2.80;;;;;;;12.40;47.94;101029.45;110014;1285;22006;-59
2023/11/07 05:42:40;;;;;;;8.40;2.40;;;;;;;12.48;48.07;101027.80;110017;1276;21905;-69
2023/11/07 05:45:07;;;;;;;6.50;3.10;;;;;;;12.55;48.06;101032.30;110006;1283;21938;-59
2023/11/07 05:47:35;;;;;;;7.20;2.80;;;;;;;12.61;48.04;101040.52;110017;1273;21926;-69
2023/11/07 05:50:01;;;;;;;6.40;2.60;;;;;;;12.67;48.20;101044.32;109274;1278;1002179;-59
2023/11/07 05:52:27;;;;;;;6.80;2.30;;;;;;;12.75;48.22;101045.11;110017;1285;21918;-69
2023/11/07 05:54:52;;;;;;;6.60;2.80;;;;;;;12.86;48.38;101051.17;110024;1285;21948;-59
2023/11/07 05:57:19;;;;;;;5.20;2.70;;;;;;;12.98;48.60;101049.09;109997;1274;21921;-69
2023/11/07 05:59:44;;;;;;;5.90;2.90;;;;;;;13.13;48.68;101048.91;109993;1276;21947;-69
2023/11/07 06:02:10;;;;;;;4.70;2.60;;;;;;;13.28;48.62;101047.14;109966;1285;21921;-63
2023/11/07 06:04:36;;;;;;;9.00;3.00;;;;;;;13.44;48.79;101049.44;110004;1276;21871;-59
2023/11/07 06:07:02;;;;;;;7.40;3.10;;;;;;;13.59;49.18;101057.00;110021;1281;21922;-61
2023/11/07 06:09:28;;;;;;;7.00;3.00;;;;;;;13.75;49.08;101061.52;110000;1281;21997;-68
2023/11/07 06:11:55;;;;;;;6.60;3.00;;;;;;;13.90;48.89;101064.31;109996;1277;21841;-65
2023/11/07 06:14:22;;;;;;;5.50;3.40;;;;;;;14.05;48.94;101062.49;110011;1283;21952;-59
2023/11/07 06:16:48;;;;;;;6.10;2.60;;;;;;;14.20;48.64;101064.36;110020;1285;21980;-67
2023/11/07 06:19:13;;;;;;;8.50;3.30;;;;;;;14.34;48.23;101065.90;110001;1279;21932;-59
2023/11/07 06:21:39;;;;;;;6.00;2.70;;;;;;;14.48;48.19;101070.09;109985;1280;21948;-69
2023/11/07 06:24:06;;;;;;;7.90;3.50;;;;;;;14.61;47.96;101067.37;110017;1276;21978;-69
2023/11/07 06:26:33;;;;;;;5.40;2.70;;;;;;;14.76;48.08;101066.60;110009;1279;21988;-59
2023/11/07 06:28:58;;;;;;;5.70;3.30;;;;;;;14.90;47.94;101066.51;110018;1285;21931;-59
2023/11/07 06:31:25;;;;;;;8.50;3.20;;;;;;;15.04;47.80;101072.08;110001;1285;21972;-60
2023/11/07 06:33:51;;;;;;;6.50;3.00;;;;;;;15.16;47.77;101071.50;109999;1285;21930;-69
2023/11/07 06:36:16;;;;;;;7.90;3.30;;;;;;;15.29;47.77;101071.92;110003;1285;21957;-69
2023/11/07 06:38:42;;;;;;;4.80;2.50;;;;;;;15.44;47.98;101071.79;109997;1285;22010;-59
2023/11/07 06:41:08;;;;;;;6.90;2.80;;;;;;;15.62;47.92;101071.23;110002;1273;21955;-70
2023/11/07 06:43:35;;;;;;;8.80;3.10;;;;;;;15.82;47.92;101070.27;109991;1276;22011;-69
2023/11/07 06:46:02;;;;;;;6.20;2.50;;;;;;;15.99;47.93;101070.23;110018;1280;21943;-59
2023/11/07 06:48:28;;;;;;;5.10;2.80;;;;;;;16.17;48.08;101074.93;110015;1285;21940;-60
2023/11/07 06:50:54;;;;;;;6.30;3.40;;;;;;;16.35;47.87;101072.37;109999;1285;21926;-59
2023/11/07 06:53:20;;;;;;;7.30;3.20;;;;;;;16.48;47.64;101069.02;110021;1274;21951;-59
2023/11/07 06:55:46;;;;;;;7.80;4.00;;;;;;;16.60;47.60;101067.14;110016;1280;21924;-70
2023/11/07 06:58:12;;;;;;;8.50;3.50;;;;;;;16.72;47.35;101067.35;110007;1276;21988;-68
2023/11/07 07:00:38;;;;;;;9.90;4.10;;;;;;;16.85;47.32;101071.59;110026;1274;21917;-70
2023/11/07 07:03:04;;;;;;;7.70;3.30;;;;;;;17.01;47.32;101072.95;109997;1276;22034;-60
2023/11/07 07:05:29;;;;;;;6.10;3.80;;;;;;;17.16;46.63;101078.23;110010;1278;21928;-59
2023/11/07 07:07:55;;;;;;;10.40;3.30;;;;;;;17.28;46.58;101074.86;110021;1279;21931;-59
2023/11/07 07:10:21;;;;;;;7.40;3.50;;;;;;;17.43;46.64;101077.09;110019;1273;22031;-68
2023/11/07 07:12:47;;;;;;;6.10;3.10;;;;;;;17.57;46.50;101078.08;110023;1276;21903;-69
2023/11/07 07:15:12;;;;;;;8.50;3.90;;;;;;;17.73;46.59;101079.90;110016;1277;21947;-70
2023/11/07 07:17:38;;;;;;;6.50;3.00;;;;;;;17.89;46.38;101078.69;110026;1279;21918;-70
2023/11/07 07:20:11;;;;;;;5.70;2.90;;;;;;;18.03;46.13;101077.21;110013;1283;21922;-60
2023/11/07 07:22:44;;;;;;;6.10;2.80;;;;;;;18.16;46.21;101081.95;108515;1283;1005809;-69
2023/11/07 07:25:15;;;;;;;8.30;2.90;;;;;;;18.33;46.18;101079.79;109982;1285;21905;-59
2023/11/07 07:27:45;;;;;;;5.10;2.60;;;;;;;18.50;46.03;101080.29;110021;1276;22016;-74
2023/11/07 07:30:16;;;;;;;4.50;2.30;;;;;;;18.65;45.46;101081.91;109965;1283;22303;-69
2023/11/07 07:32:41;;;;;;;;;;;;;;;18.79;45.55;101079.44;110020;1276;21961;-68
2023/11/07 07:35:14;;;;;;;4.10;2.50;;;;;;;18.99;45.56;101083.40;109974;1285;21989;-67
2023/11/07 07:37:43;;;;;;;6.40;2.50;;;;;;;19.22;45.47;101087.73;110167;1285;21903;-61
2023/11/07 07:40:10;;;;;;;6.40;3.30;;;;;;;19.46;45.21;101090.75;110149;1276;22237;-60
2023/11/07 07:42:35;;;;;;;8.30;3.20;;;;;;;19.71;45.44;101092.11;110033;1285;21997;-60
2023/11/07 07:45:03;;;;;;;7.60;3.00;;;;;;;19.94;45.28;101096.56;105461;1279;1002706;-60
2023/11/07 07:47:29;;;;;;;7.00;2.70;;;;;;;20.10;44.74;101097.19;110018;1276;21954;-70
2023/11/07 07:49:55;;;;;;;5.60;2.70;;;;;;;20.21;44.43;101096.74;109966;1285;21870;-60
2023/11/07 07:52:22;;;;;;;8.80;3.70;;;;;;;20.33;43.84;101096.61;110056;1283;22006;-61
2023/11/07 07:54:48;;;;;;;9.40;3.40;;;;;;;20.45;43.96;101098.94;110093;1283;21927;-60
2023/11/07 07:57:17;;;;;;;8.90;5.10;;;;;;;20.59;43.41;101101.92;109993;1285;21937;-61
2023/11/07 07:59:44;;;;;;;8.50;4.00;;;;;;;20.71;43.16;101106.05;109988;1285;22017;-60
2023/11/07 08:02:10;;;;;;;5.10;2.60;;;;;;;20.84;43.28;101107.47;110042;1284;21953;-70
2023/11/07 08:04:36;;;;;;;5.40;2.10;;;;;;;20.97;43.40;101112.79;110002;1283;22015;-60
2023/11/07 08:07:01;;;;;;;5.40;2.40;;;;;;;21.11;42.88;101116.65;109994;1273;21929;-69
2023/11/07 08:09:28;;;;;;;4.60;2.20;;;;;;;21.24;42.99;101116.61;110003;1281;22008;-60
2023/11/07 08:11:56;;;;;;;3.60;1.90;;;;;;;21.40;42.85;101120.89;110025;1285;21959;-70
2023/11/07 08:14:22;;;;;;;4.40;2.30;;;;;;;21.54;42.54;101118.63;109999;1285;22407;-60
2023/11/07 08:16:50;;;;;;;5.30;2.20;;;;;;;21.68;42.64;101117.67;109983;1285;21966;-60
2023/11/07 08:19:17;;;;;;;4.40;2.00;;;;;;;21.80;42.12;101119.45;109988;1285;22000;-70
2023/11/07 08:21:43;;;;;;;6.10;2.40;;;;;;;21.91;42.21;101115.16;110007;1285;21863;-70
2023/11/07 08:24:09;;;;;;;8.50;1.90;;;;;;;22.00;41.96;101114.52;110014;1285;21942;-61
2023/11/07 08:26:35;;;;;;;3.60;1.90;;;;;;;22.11;41.17;101115.08;110025;1285;21970;-65
2023/11/07 08:29:07;;;;;;;4.20;1.70;;;;;;;22.29;41.68;101118.12;110029;1285;22424;-61
2023/11/07 08:31:33;;;;;;;4.20;1.60;;;;;;;22.46;41.62;101118.52;110002;1284;21958;-60
2023/11/07 08:33:59;;;;;;;2.90;1.40;;;;;;;22.59;41.06;101112.86;110009;1285;21978;-70
2023/11/07 08:36:25;;;;;;;5.20;1.70;;;;;;;22.75;40.79;101115.84;110004;1285;21938;-62
2023/11/07 08:38:50;;;;;;;4.40;1.50;;;;;;;22.88;40.13;101113.18;110010;1285;21929;-70
2023/11/07 08:41:16;;;;;;;6.90;2.10;;;;;;;23.02;40.34;101106.37;110004;1285;21937;-69
2023/11/07 08:43:41;;;;;;;4.10;1.30;;;;;;;23.19;39.42;101105.31;109996;1285;21941;-64
2023/11/07 08:46:08;;;;;;;4.40;1.40;;;;;;;23.33;39.75;101103.86;109985;1285;21941;-61
2023/11/07 08:48:34;;;;;;;3.30;1.20;;;;;;;23.44;39.64;101105.04;110004;1285;21941;-61
2023/11/07 08:51:01;;;;;;;2.40;1.00;;;;;;;23.50;39.10;101110.27;110009;1285;21932;-70
2023/11/07 08:53:27;;;;;;;1.90;0.90;;;;;;;23.56;38.72;101108.17;110025;1285;21952;-70
2023/11/07 08:55:52;;;;;;;1.60;0.80;;;;;;;23.62;38.43;101104.09;110015;1285;21956;-66
2023/11/07 08:58:19;;;;;;;2.20;0.90;;;;;;;23.69;38.03;101103.31;109987;1285;21946;-68
2023/11/07 09:00:45;;;;;;;3.50;1.00;;;;;;;23.85;38.29;101095.63;110007;1285;21925;-61
2023/11/07 09:03:11;;;;;;;2.90;1.00;;;;;;;24.00;37.91;101101.41;110026;1285;22474;-69
2023/11/07 09:05:38;;;;;;;1.70;0.80;;;;;;;24.10;37.35;101102.85;110006;1285;21934;-61
2023/11/07 09:08:04;;;;;;;4.30;0.80;;;;;;;24.18;36.55;101098.43;110016;1285;21896;-69
2023/11/07 09:10:32;;;;;;;2.00;1.00;;;;;;;24.26;36.68;101097.58;110015;1285;21984;-69
2023/11/07 09:12:57;;;;;;;3.70;0.90;;;;;;;24.35;36.57;101095.48;110011;1285;22249;-60
2023/11/07 09:15:25;;;;;;;2.60;1.10;;;;;;;24.42;36.83;101092.17;110015;1285;21924;-60
2023/11/07 09:17:51;;;;;;;3.60;1.20;;;;;;;24.49;36.16;101091.62;110012;1284;21875;-69
2023/11/07 09:20:17;;;;;;;2.20;1.00;;;;;;;24.51;36.06;101090.19;110027;1285;21945;-69
2023/11/07 09:22:42;;;;;;;2.10;0.90;;;;;;;24.55;36.32;101088.55;109997;1285;21953;-63
2023/11/07 09:25:09;;;;;;;4.00;1.30;;;;;;;24.63;36.07;101084.28;110002;1284;21926;-61
2023/11/07 09:27:36;;;;;;;4.40;1.20;;;;;;;24.76;35.86;101084.83;110018;1285;21946;-62
2023/11/07 09:30:09;;;;;;;1.70;0.90;;;;;;;24.84;35.91;101082.87;110003;1285;21850;-60
2023/11/07 09:32:35;;;;;;;2.10;0.80;;;;;;;24.95;35.16;101077.73;110016;1285;21907;-69
2023/11/07 09:35:03;;;;;;;2.40;1.00;;;;;;;25.00;34.57;101082.08;110005;1285;21868;-61
2023/11/07 09:37:29;;;;;;;1.80;0.70;;;;;;;25.04;34.23;101086.17;110009;1285;21935;-69
2023/11/07 09:39:54;;;;;;;3.90;1.10;;;;;;;25.07;33.87;101084.16;110018;1284;21999;-69
2023/11/07 09:42:20;;;;;;;3.10;0.80;;;;;;;25.11;34.67;101074.61;110006;1285;21959;-69
2023/11/07 09:44:48;;;;;;;2.50;0.90;;;;;;;25.11;34.24;101067.58;110017;1285;21930;-69
2023/11/07 09:47:13;;;;;;;2.50;0.70;;;;;;;25.09;34.01;101062.34;110021;1285;21925;-69
2023/11/07 09:49:39;;;;;;;2.10;0.50;;;;;;;25.13;34.08;101059.05;110000;1284;21916;-60
2023/11/07 09:52:06;;;;;;;1.50;0.70;;;;;;;25.24;34.49;101055.47;109978;1285;21945;-61
2023/11/07 09:54:32;;;;;;;1.80;0.60;;;;;;;25.40;34.57;101048.00;109998;1285;21869;-61
2023/11/07 09:57:08;;;;;;;0.90;0.50;;;;;;;25.54;34.14;101042.77;110022;1285;21961;-61
2023/11/07 09:59:39;;;;;;;2.00;0.80;;;;;;;25.71;34.03;101041.91;110008;1285;21999;-61
2023/11/07 10:02:07;;;;;;;5.00;0.90;;;;;;;25.75;33.56;101043.61;109913;1285;22390;-61
2023/11/07 10:04:39;;;;;;;3.80;0.90;;;;;;;25.85;33.57;101040.42;110013;1280;21993;-61
2023/11/07 10:07:05;;;;;;;1.80;0.60;;;;;;;26.01;33.13;101033.80;110006;1285;21914;-61
2023/11/07 10:09:31;;;;;;;1.20;0.50;;;;;;;26.15;33.54;101026.79;110025;1285;22467;-69
2023/11/07 10:11:58;;;;;;;2.50;0.70;;;;;;;26.21;33.25;101027.27;109998;1285;21923;-62
2023/11/07 10:14:24;;;;;;;2.10;0.60;;;;;;;26.23;33.53;101022.50;109998;1285;21943;-70
2023/11/07 10:16:52;;;;;;;1.70;0.50;;;;;;;26.30;33.55;101020.55;110008;1285;22110;-60
2023/11/07 10:19:22;;;;;;;2.40;1.20;;;;;;;26.46;33.30;101014.57;110026;1285;21943;-59
2023/11/07 10:21:48;;;;;;;6.10;0.80;;;;;;;26.68;33.53;101006.77;110032;1285;21911;-71
2023/11/07 10:24:14;;;;;;;6.90;0.80;;;;;;;26.85;33.59;101005.66;109997;1285;21937;-71
2023/11/07 10:26:53;;;;;;;1.50;0.70;;;;;;;27.08;32.90;101001.52;110023;1285;21907;-69
2023/11/07 10:29:25;;;;;;;4.70;0.80;;;;;;;27.16;32.81;100998.93;110011;1283;21927;-60
2023/11/07 10:31:59;;;;;;;5.10;0.90;;;;;;;27.20;33.47;100995.94;110009;1285;21945;-60
2023/11/07 10:34:26;;;;;;;2.10;0.80;;;;;;;27.41;33.35;100996.92;110018;1285;21930;-60
2023/11/07 10:36:51;;;;;;;2.10;0.60;;;;;;;27.53;32.98;100994.06;110015;1285;22010;-70
2023/11/07 10:39:17;;;;;;;1.60;0.70;;;;;;;27.66;33.13;100990.77;109999;1285;21959;-60
2023/11/07 10:41:44;;;;;;;3.30;0.70;;;;;;;27.79;32.57;100988.23;110012;1285;21950;-70
2023/11/07 10:44:38;;;;;;;1.20;0.60;;;;;;;27.72;32.24;100990.71;110030;1285;21951;-60
2023/11/07 10:47:04;;;;;;;3.10;0.90;;;;;;;27.59;31.78;100995.09;110013;1284;21902;-71
2023/11/07 10:49:30;;;;;;;1.20;0.60;;;;;;;27.50;31.53;100993.23;110007;1274;22005;-71
2023/11/07 10:51:56;;;;;;;1.00;0.70;;;;;;;27.48;31.90;100995.70;109976;1285;21901;-61
2023/11/07 10:54:21;;;;;;;1.40;0.60;;;;;;;27.59;32.11;100991.31;109964;1283;21986;-60
2023/11/07 10:56:49;;;;;;;2.00;0.70;;;;;;;27.70;32.14;100988.83;110018;1285;21940;-71
2023/11/07 10:59:18;;;;;;;1.40;0.70;;;;;;;27.80;32.26;100988.09;110021;1285;22019;-61
2023/11/07 11:01:50;;;;;;;6.50;1.40;;;;;;;27.94;32.15;100986.66;109996;1284;21935;-61
2023/11/07 11:04:17;;;;;;;3.00;0.60;;;;;;;27.99;32.00;100987.73;110016;1285;22301;-61
2023/11/07 11:06:45;;;;;;;2.60;0.60;;;;;;;28.08;31.84;100986.20;110013;1284;21906;-69
2023/11/07 11:09:11;;;;;;;1.40;0.50;;;;;;;28.11;31.66;100987.95;109998;1285;21957;-70
2023/11/07 11:11:41;;;;;;;2.80;0.50;;;;;;;28.14;31.81;100989.19;110017;1284;21999;-60
2023/11/07 11:14:10;;;;;;;1.70;0.60;;;;;;;28.11;31.31;100991.52;110033;1285;21970;-71